sensor_id;sensor_type;location;lat;lon;timestamp;P1;durP1;ratioP1;P2;durP2;ratioP2
19758;SDS011;10038;42.662;23.278;2022-12-08T00:01:05;57.40;;;27.63;;
19758;SDS011;10038;42.662;23.278;2022-12-08T00:03:32;57.13;;;29.27;;
19758;SDS011;10038;42.662;23.278;2022-12-08T00:06:00;54.53;;;26.73;;
19758;SDS011;10038;42.662;23.278;2022-12-08T00:08:44;59.40;;;25.63;;
19758;SDS011;10038;42.662;23.278;2022-12-08T00:11:28;47.20;;;24.90;;
19758;SDS011;10038;42.662;23.278;2022-12-08T00:13:55;56.95;;;23.67;;
19758;SDS011;10038;42.662;23.278;2022-12-08T00:16:23;65.63;;;30.23;;
19758;SDS011;10038;42.662;23.278;2022-12-08T00:18:49;54.92;;;25.33;;
19758;SDS011;10038;42.662;23.278;2022-12-08T00:21:16;70.13;;;31.63;;
19758;SDS011;10038;42.662;23.278;2022-12-08T00:23:43;48.17;;;24.33;;
19758;SDS011;10038;42.662;23.278;2022-12-08T00:26:09;51.72;;;26.42;;
19758;SDS011;10038;42.662;23.278;2022-12-08T00:28:36;50.15;;;23.33;;
19758;SDS011;10038;42.662;23.278;2022-12-08T00:31:06;45.30;;;22.20;;
19758;SDS011;10038;42.662;23.278;2022-12-08T00:33:34;39.35;;;22.95;;
19758;SDS011;10038;42.662;23.278;2022-12-08T00:36:04;44.78;;;24.13;;
19758;SDS011;10038;42.662;23.278;2022-12-08T00:38:31;50.13;;;22.58;;
19758;SDS011;10038;42.662;23.278;2022-12-08T00:40:57;46.28;;;21.35;;
19758;SDS011;10038;42.662;23.278;2022-12-08T00:43:24;38.78;;;20.33;;
19758;SDS011;10038;42.662;23.278;2022-12-08T00:45:50;42.08;;;20.92;;
19758;SDS011;10038;42.662;23.278;2022-12-08T00:48:17;44.58;;;21.70;;
19758;SDS011;10038;42.662;23.278;2022-12-08T00:50:45;38.00;;;19.60;;
19758;SDS011;10038;42.662;23.278;2022-12-08T00:53:12;48.78;;;20.70;;
19758;SDS011;10038;42.662;23.278;2022-12-08T00:55:38;35.72;;;20.23;;
19758;SDS011;10038;42.662;23.278;2022-12-08T00:58:05;40.25;;;20.23;;
19758;SDS011;10038;42.662;23.278;2022-12-08T01:00:32;37.45;;;20.05;;
19758;SDS011;10038;42.662;23.278;2022-12-08T01:02:58;34.03;;;18.20;;
19758;SDS011;10038;42.662;23.278;2022-12-08T01:05:25;40.00;;;20.47;;
19758;SDS011;10038;42.662;23.278;2022-12-08T01:07:53;35.80;;;19.10;;
19758;SDS011;10038;42.662;23.278;2022-12-08T01:10:19;37.63;;;17.75;;
19758;SDS011;10038;42.662;23.278;2022-12-08T01:12:46;33.95;;;17.45;;
19758;SDS011;10038;42.662;23.278;2022-12-08T01:15:12;38.58;;;18.63;;
19758;SDS011;10038;42.662;23.278;2022-12-08T01:17:39;30.95;;;17.27;;
19758;SDS011;10038;42.662;23.278;2022-12-08T01:20:06;33.05;;;19.45;;
19758;SDS011;10038;42.662;23.278;2022-12-08T01:22:33;42.42;;;17.30;;
19758;SDS011;10038;42.662;23.278;2022-12-08T01:25:02;41.50;;;17.83;;
19758;SDS011;10038;42.662;23.278;2022-12-08T01:27:28;37.05;;;19.20;;
19758;SDS011;10038;42.662;23.278;2022-12-08T01:29:55;38.30;;;19.70;;
19758;SDS011;10038;42.662;23.278;2022-12-08T01:32:21;32.70;;;15.50;;
19758;SDS011;10038;42.662;23.278;2022-12-08T01:34:48;37.03;;;17.10;;
19758;SDS011;10038;42.662;23.278;2022-12-08T01:37:15;37.67;;;17.90;;
19758;SDS011;10038;42.662;23.278;2022-12-08T01:39:41;37.20;;;17.98;;
19758;SDS011;10038;42.662;23.278;2022-12-08T01:42:14;34.08;;;16.95;;
19758;SDS011;10038;42.662;23.278;2022-12-08T01:44:54;32.15;;;15.55;;
19758;SDS011;10038;42.662;23.278;2022-12-08T01:47:22;26.60;;;14.93;;
19758;SDS011;10038;42.662;23.278;2022-12-08T01:49:50;31.60;;;14.80;;
19758;SDS011;10038;42.662;23.278;2022-12-08T01:52:17;31.02;;;16.23;;
19758;SDS011;10038;42.662;23.278;2022-12-08T01:54:46;33.53;;;16.02;;
19758;SDS011;10038;42.662;23.278;2022-12-08T01:57:17;33.20;;;17.17;;
19758;SDS011;10038;42.662;23.278;2022-12-08T01:59:45;34.17;;;19.27;;
19758;SDS011;10038;42.662;23.278;2022-12-08T02:02:13;31.60;;;16.85;;
19758;SDS011;10038;42.662;23.278;2022-12-08T02:04:40;35.42;;;18.15;;
19758;SDS011;10038;42.662;23.278;2022-12-08T02:07:07;44.30;;;18.63;;
19758;SDS011;10038;42.662;23.278;2022-12-08T02:09:34;38.97;;;18.33;;
19758;SDS011;10038;42.662;23.278;2022-12-08T02:12:01;34.13;;;16.45;;
19758;SDS011;10038;42.662;23.278;2022-12-08T02:14:29;35.35;;;17.02;;
19758;SDS011;10038;42.662;23.278;2022-12-08T02:16:57;35.28;;;17.27;;
19758;SDS011;10038;42.662;23.278;2022-12-08T02:19:33;35.72;;;16.38;;
19758;SDS011;10038;42.662;23.278;2022-12-08T02:22:03;33.38;;;16.30;;
19758;SDS011;10038;42.662;23.278;2022-12-08T02:24:33;30.67;;;15.45;;
19758;SDS011;10038;42.662;23.278;2022-12-08T02:27:07;29.40;;;15.07;;
19758;SDS011;10038;42.662;23.278;2022-12-08T02:35:28;27.42;;;15.77;;
19758;SDS011;10038;42.662;23.278;2022-12-08T02:38:00;28.45;;;13.65;;
19758;SDS011;10038;42.662;23.278;2022-12-08T02:40:30;35.97;;;16.05;;
19758;SDS011;10038;42.662;23.278;2022-12-08T02:42:59;31.50;;;14.40;;
19758;SDS011;10038;42.662;23.278;2022-12-08T02:45:29;33.38;;;16.08;;
19758;SDS011;10038;42.662;23.278;2022-12-08T02:47:57;30.65;;;15.02;;
19758;SDS011;10038;42.662;23.278;2022-12-08T02:50:24;33.83;;;14.30;;
19758;SDS011;10038;42.662;23.278;2022-12-08T02:52:52;28.95;;;13.48;;
19758;SDS011;10038;42.662;23.278;2022-12-08T02:55:23;37.65;;;14.73;;
19758;SDS011;10038;42.662;23.278;2022-12-08T03:00:37;27.38;;;13.35;;
19758;SDS011;10038;42.662;23.278;2022-12-08T03:03:08;35.92;;;16.75;;
19758;SDS011;10038;42.662;23.278;2022-12-08T03:05:44;32.97;;;14.23;;
19758;SDS011;10038;42.662;23.278;2022-12-08T03:08:18;30.10;;;15.30;;
19758;SDS011;10038;42.662;23.278;2022-12-08T03:10:49;29.92;;;14.45;;
19758;SDS011;10038;42.662;23.278;2022-12-08T03:13:19;32.45;;;15.45;;
19758;SDS011;10038;42.662;23.278;2022-12-08T03:15:47;37.25;;;17.40;;
19758;SDS011;10038;42.662;23.278;2022-12-08T03:18:15;34.60;;;16.45;;
19758;SDS011;10038;42.662;23.278;2022-12-08T03:20:42;36.55;;;14.95;;
19758;SDS011;10038;42.662;23.278;2022-12-08T03:23:10;38.40;;;16.13;;
19758;SDS011;10038;42.662;23.278;2022-12-08T03:25:42;27.75;;;14.48;;
19758;SDS011;10038;42.662;23.278;2022-12-08T03:28:10;27.55;;;13.35;;
19758;SDS011;10038;42.662;23.278;2022-12-08T03:30:38;29.52;;;14.70;;
19758;SDS011;10038;42.662;23.278;2022-12-08T03:33:05;30.60;;;13.30;;
19758;SDS011;10038;42.662;23.278;2022-12-08T03:35:32;29.38;;;15.13;;
19758;SDS011;10038;42.662;23.278;2022-12-08T03:38:01;29.42;;;12.68;;
19758;SDS011;10038;42.662;23.278;2022-12-08T03:40:27;31.48;;;14.88;;
19758;SDS011;10038;42.662;23.278;2022-12-08T03:42:55;35.28;;;15.10;;
19758;SDS011;10038;42.662;23.278;2022-12-08T03:45:22;23.50;;;14.50;;
19758;SDS011;10038;42.662;23.278;2022-12-08T03:47:48;26.40;;;13.13;;
19758;SDS011;10038;42.662;23.278;2022-12-08T03:50:15;22.38;;;11.95;;
19758;SDS011;10038;42.662;23.278;2022-12-08T03:52:42;30.55;;;14.20;;
19758;SDS011;10038;42.662;23.278;2022-12-08T03:55:08;27.95;;;11.98;;
19758;SDS011;10038;42.662;23.278;2022-12-08T03:57:35;29.55;;;14.48;;
19758;SDS011;10038;42.662;23.278;2022-12-08T04:00:04;30.30;;;13.50;;
19758;SDS011;10038;42.662;23.278;2022-12-08T04:02:31;23.77;;;13.15;;
19758;SDS011;10038;42.662;23.278;2022-12-08T04:04:58;30.55;;;14.57;;
19758;SDS011;10038;42.662;23.278;2022-12-08T04:07:24;26.63;;;12.45;;
19758;SDS011;10038;42.662;23.278;2022-12-08T04:09:51;27.27;;;12.05;;
19758;SDS011;10038;42.662;23.278;2022-12-08T04:12:17;28.85;;;13.20;;
19758;SDS011;10038;42.662;23.278;2022-12-08T04:14:44;29.38;;;15.38;;
19758;SDS011;10038;42.662;23.278;2022-12-08T04:17:12;26.73;;;14.25;;
19758;SDS011;10038;42.662;23.278;2022-12-08T04:19:38;26.77;;;12.90;;
19758;SDS011;10038;42.662;23.278;2022-12-08T04:22:06;24.63;;;12.57;;
19758;SDS011;10038;42.662;23.278;2022-12-08T04:24:32;23.63;;;12.35;;
19758;SDS011;10038;42.662;23.278;2022-12-08T04:26:59;20.40;;;13.07;;
19758;SDS011;10038;42.662;23.278;2022-12-08T04:29:25;26.30;;;12.15;;
19758;SDS011;10038;42.662;23.278;2022-12-08T04:31:52;32.90;;;13.32;;
19758;SDS011;10038;42.662;23.278;2022-12-08T04:34:20;25.55;;;13.82;;
19758;SDS011;10038;42.662;23.278;2022-12-08T04:36:46;31.48;;;13.30;;
19758;SDS011;10038;42.662;23.278;2022-12-08T04:39:13;22.23;;;13.25;;
19758;SDS011;10038;42.662;23.278;2022-12-08T04:41:40;25.02;;;13.10;;
19758;SDS011;10038;42.662;23.278;2022-12-08T04:44:06;26.27;;;12.77;;
19758;SDS011;10038;42.662;23.278;2022-12-08T04:46:33;26.83;;;13.30;;
19758;SDS011;10038;42.662;23.278;2022-12-08T04:48:59;26.67;;;13.68;;
19758;SDS011;10038;42.662;23.278;2022-12-08T04:51:27;27.80;;;12.43;;
19758;SDS011;10038;42.662;23.278;2022-12-08T04:53:54;29.73;;;14.07;;
19758;SDS011;10038;42.662;23.278;2022-12-08T04:56:21;26.33;;;12.60;;
19758;SDS011;10038;42.662;23.278;2022-12-08T04:58:47;22.42;;;11.68;;
19758;SDS011;10038;42.662;23.278;2022-12-08T05:01:14;29.65;;;15.10;;
19758;SDS011;10038;42.662;23.278;2022-12-08T05:03:41;27.38;;;15.13;;
19758;SDS011;10038;42.662;23.278;2022-12-08T05:06:08;23.15;;;12.95;;
19758;SDS011;10038;42.662;23.278;2022-12-08T05:08:36;19.83;;;11.32;;
19758;SDS011;10038;42.662;23.278;2022-12-08T05:11:03;33.90;;;15.90;;
19758;SDS011;10038;42.662;23.278;2022-12-08T05:13:30;33.75;;;14.02;;
19758;SDS011;10038;42.662;23.278;2022-12-08T05:16:01;31.60;;;15.55;;
19758;SDS011;10038;42.662;23.278;2022-12-08T05:18:27;32.88;;;15.68;;
19758;SDS011;10038;42.662;23.278;2022-12-08T05:20:54;35.28;;;15.02;;
19758;SDS011;10038;42.662;23.278;2022-12-08T05:23:21;33.58;;;17.67;;
19758;SDS011;10038;42.662;23.278;2022-12-08T05:25:49;28.02;;;16.70;;
19758;SDS011;10038;42.662;23.278;2022-12-08T05:28:15;30.10;;;14.93;;
19758;SDS011;10038;42.662;23.278;2022-12-08T05:30:42;25.13;;;13.52;;
19758;SDS011;10038;42.662;23.278;2022-12-08T05:33:08;29.35;;;15.93;;
19758;SDS011;10038;42.662;23.278;2022-12-08T05:35:35;29.65;;;16.15;;
19758;SDS011;10038;42.662;23.278;2022-12-08T05:38:02;41.08;;;18.10;;
19758;SDS011;10038;42.662;23.278;2022-12-08T05:40:28;33.83;;;17.38;;
19758;SDS011;10038;42.662;23.278;2022-12-08T05:42:56;30.23;;;16.05;;
19758;SDS011;10038;42.662;23.278;2022-12-08T05:45:23;34.80;;;17.27;;
19758;SDS011;10038;42.662;23.278;2022-12-08T05:47:51;44.45;;;17.98;;
19758;SDS011;10038;42.662;23.278;2022-12-08T05:50:18;36.08;;;16.20;;
19758;SDS011;10038;42.662;23.278;2022-12-08T05:52:44;28.15;;;15.27;;
19758;SDS011;10038;42.662;23.278;2022-12-08T05:55:11;36.83;;;15.73;;
19758;SDS011;10038;42.662;23.278;2022-12-08T05:57:37;38.17;;;18.15;;
19758;SDS011;10038;42.662;23.278;2022-12-08T06:00:07;35.10;;;17.30;;
19758;SDS011;10038;42.662;23.278;2022-12-08T06:02:34;40.33;;;16.80;;
19758;SDS011;10038;42.662;23.278;2022-12-08T06:05:01;40.30;;;17.05;;
19758;SDS011;10038;42.662;23.278;2022-12-08T06:07:28;36.10;;;18.55;;
19758;SDS011;10038;42.662;23.278;2022-12-08T06:09:54;30.00;;;16.70;;
19758;SDS011;10038;42.662;23.278;2022-12-08T06:12:21;38.60;;;19.40;;
19758;SDS011;10038;42.662;23.278;2022-12-08T06:14:48;30.70;;;17.48;;
19758;SDS011;10038;42.662;23.278;2022-12-08T06:17:16;36.38;;;19.40;;
19758;SDS011;10038;42.662;23.278;2022-12-08T06:19:43;42.85;;;19.50;;
19758;SDS011;10038;42.662;23.278;2022-12-08T06:22:09;42.72;;;19.85;;
19758;SDS011;10038;42.662;23.278;2022-12-08T06:24:36;34.65;;;19.38;;
19758;SDS011;10038;42.662;23.278;2022-12-08T06:27:02;42.75;;;20.17;;
19758;SDS011;10038;42.662;23.278;2022-12-08T06:29:29;48.53;;;24.17;;
19758;SDS011;10038;42.662;23.278;2022-12-08T06:31:55;44.13;;;22.38;;
19758;SDS011;10038;42.662;23.278;2022-12-08T06:34:23;48.45;;;21.20;;
19758;SDS011;10038;42.662;23.278;2022-12-08T06:36:50;33.00;;;20.80;;
19758;SDS011;10038;42.662;23.278;2022-12-08T06:39:17;48.83;;;24.30;;
19758;SDS011;10038;42.662;23.278;2022-12-08T06:41:43;43.78;;;22.27;;
19758;SDS011;10038;42.662;23.278;2022-12-08T06:44:27;45.22;;;22.23;;
19758;SDS011;10038;42.662;23.278;2022-12-08T06:46:54;41.72;;;22.33;;
19758;SDS011;10038;42.662;23.278;2022-12-08T06:49:20;52.17;;;25.40;;
19758;SDS011;10038;42.662;23.278;2022-12-08T06:51:48;43.40;;;22.55;;
19758;SDS011;10038;42.662;23.278;2022-12-08T06:54:15;55.00;;;26.13;;
19758;SDS011;10038;42.662;23.278;2022-12-08T06:56:42;42.63;;;24.58;;
19758;SDS011;10038;42.662;23.278;2022-12-08T06:59:08;46.07;;;23.47;;
19758;SDS011;10038;42.662;23.278;2022-12-08T07:01:35;43.13;;;24.20;;
19758;SDS011;10038;42.662;23.278;2022-12-08T07:04:01;40.17;;;22.73;;
19758;SDS011;10038;42.662;23.278;2022-12-08T07:06:28;41.77;;;23.00;;
19758;SDS011;10038;42.662;23.278;2022-12-08T07:08:56;46.77;;;22.57;;
19758;SDS011;10038;42.662;23.278;2022-12-08T07:11:22;40.97;;;22.07;;
19758;SDS011;10038;42.662;23.278;2022-12-08T07:13:49;40.97;;;20.43;;
19758;SDS011;10038;42.662;23.278;2022-12-08T07:16:16;45.90;;;23.70;;
19758;SDS011;10038;42.662;23.278;2022-12-08T07:18:42;46.63;;;26.60;;
19758;SDS011;10038;42.662;23.278;2022-12-08T07:21:09;43.80;;;23.37;;
19758;SDS011;10038;42.662;23.278;2022-12-08T07:23:37;44.97;;;26.43;;
19758;SDS011;10038;42.662;23.278;2022-12-08T07:26:05;49.27;;;25.80;;
19758;SDS011;10038;42.662;23.278;2022-12-08T07:28:34;44.70;;;23.20;;
19758;SDS011;10038;42.662;23.278;2022-12-08T07:31:01;39.77;;;23.67;;
19758;SDS011;10038;42.662;23.278;2022-12-08T07:33:28;45.10;;;22.87;;
19758;SDS011;10038;42.662;23.278;2022-12-08T07:35:55;41.17;;;24.23;;
19758;SDS011;10038;42.662;23.278;2022-12-08T07:38:22;45.80;;;24.43;;
19758;SDS011;10038;42.662;23.278;2022-12-08T07:40:48;40.10;;;22.77;;
19758;SDS011;10038;42.662;23.278;2022-12-08T07:43:17;43.67;;;23.73;;
19758;SDS011;10038;42.662;23.278;2022-12-08T07:45:43;40.63;;;23.40;;
19758;SDS011;10038;42.662;23.278;2022-12-08T07:48:10;41.83;;;21.57;;
19758;SDS011;10038;42.662;23.278;2022-12-08T07:50:37;41.03;;;25.27;;
19758;SDS011;10038;42.662;23.278;2022-12-08T07:53:03;42.07;;;22.47;;
19758;SDS011;10038;42.662;23.278;2022-12-08T07:55:30;50.43;;;24.07;;
19758;SDS011;10038;42.662;23.278;2022-12-08T07:57:57;42.33;;;23.57;;
19758;SDS011;10038;42.662;23.278;2022-12-08T08:00:25;45.13;;;23.70;;
19758;SDS011;10038;42.662;23.278;2022-12-08T08:02:51;47.60;;;24.57;;
19758;SDS011;10038;42.662;23.278;2022-12-08T08:05:18;57.10;;;27.90;;
19758;SDS011;10038;42.662;23.278;2022-12-08T08:07:45;36.87;;;22.23;;
19758;SDS011;10038;42.662;23.278;2022-12-08T08:10:12;41.80;;;23.73;;
19758;SDS011;10038;42.662;23.278;2022-12-08T08:12:39;40.97;;;23.50;;
19758;SDS011;10038;42.662;23.278;2022-12-08T08:15:06;46.30;;;22.50;;
19758;SDS011;10038;42.662;23.278;2022-12-08T08:17:35;39.97;;;21.07;;
19758;SDS011;10038;42.662;23.278;2022-12-08T08:20:02;48.13;;;22.93;;
19758;SDS011;10038;42.662;23.278;2022-12-08T08:22:30;49.07;;;21.63;;
19758;SDS011;10038;42.662;23.278;2022-12-08T08:24:57;40.90;;;20.10;;
19758;SDS011;10038;42.662;23.278;2022-12-08T08:27:24;43.70;;;23.43;;
19758;SDS011;10038;42.662;23.278;2022-12-08T08:29:51;46.37;;;21.83;;
19758;SDS011;10038;42.662;23.278;2022-12-08T08:32:18;41.33;;;21.13;;
19758;SDS011;10038;42.662;23.278;2022-12-08T08:34:46;38.73;;;21.93;;
19758;SDS011;10038;42.662;23.278;2022-12-08T08:37:12;35.10;;;20.00;;
19758;SDS011;10038;42.662;23.278;2022-12-08T08:39:39;38.70;;;21.13;;
19758;SDS011;10038;42.662;23.278;2022-12-08T08:42:07;36.30;;;20.37;;
19758;SDS011;10038;42.662;23.278;2022-12-08T08:44:34;39.23;;;20.33;;
19758;SDS011;10038;42.662;23.278;2022-12-08T08:47:01;39.10;;;20.20;;
19758;SDS011;10038;42.662;23.278;2022-12-08T08:49:28;38.00;;;22.37;;
19758;SDS011;10038;42.662;23.278;2022-12-08T08:51:56;38.77;;;19.00;;
19758;SDS011;10038;42.662;23.278;2022-12-08T08:54:22;35.90;;;19.67;;
19758;SDS011;10038;42.662;23.278;2022-12-08T08:56:49;42.97;;;18.80;;
19758;SDS011;10038;42.662;23.278;2022-12-08T08:59:16;38.70;;;20.87;;
19758;SDS011;10038;42.662;23.278;2022-12-08T09:01:43;42.73;;;20.83;;
19758;SDS011;10038;42.662;23.278;2022-12-08T09:04:09;32.30;;;18.93;;
19758;SDS011;10038;42.662;23.278;2022-12-08T09:06:36;40.77;;;22.17;;
19758;SDS011;10038;42.662;23.278;2022-12-08T09:09:04;39.23;;;22.27;;
19758;SDS011;10038;42.662;23.278;2022-12-08T09:11:31;39.20;;;24.47;;
19758;SDS011;10038;42.662;23.278;2022-12-08T09:13:58;37.63;;;21.93;;
19758;SDS011;10038;42.662;23.278;2022-12-08T09:16:24;30.43;;;20.00;;
19758;SDS011;10038;42.662;23.278;2022-12-08T09:18:51;32.97;;;20.30;;
19758;SDS011;10038;42.662;23.278;2022-12-08T09:21:18;33.90;;;22.87;;
19758;SDS011;10038;42.662;23.278;2022-12-08T09:23:46;44.00;;;23.47;;
19758;SDS011;10038;42.662;23.278;2022-12-08T09:26:15;41.80;;;22.80;;
19758;SDS011;10038;42.662;23.278;2022-12-08T09:28:41;38.43;;;26.27;;
19758;SDS011;10038;42.662;23.278;2022-12-08T09:31:11;36.87;;;24.70;;
19758;SDS011;10038;42.662;23.278;2022-12-08T09:33:37;31.90;;;22.43;;
19758;SDS011;10038;42.662;23.278;2022-12-08T09:36:04;40.30;;;23.00;;
19758;SDS011;10038;42.662;23.278;2022-12-08T09:38:31;30.10;;;22.43;;
19758;SDS011;10038;42.662;23.278;2022-12-08T09:40:57;34.23;;;22.13;;
19758;SDS011;10038;42.662;23.278;2022-12-08T09:43:43;32.47;;;22.77;;
19758;SDS011;10038;42.662;23.278;2022-12-08T09:46:12;33.77;;;24.63;;
19758;SDS011;10038;42.662;23.278;2022-12-08T09:48:42;37.83;;;23.20;;
19758;SDS011;10038;42.662;23.278;2022-12-08T09:51:10;32.90;;;21.97;;
19758;SDS011;10038;42.662;23.278;2022-12-08T09:53:40;33.50;;;23.73;;
19758;SDS011;10038;42.662;23.278;2022-12-08T09:56:09;30.83;;;21.67;;
19758;SDS011;10038;42.662;23.278;2022-12-08T09:58:41;26.00;;;19.90;;
19758;SDS011;10038;42.662;23.278;2022-12-08T10:01:11;24.00;;;17.70;;
19758;SDS011;10038;42.662;23.278;2022-12-08T10:03:39;24.07;;;15.70;;
19758;SDS011;10038;42.662;23.278;2022-12-08T10:06:06;27.07;;;17.30;;
19758;SDS011;10038;42.662;23.278;2022-12-08T10:08:39;32.17;;;18.63;;
19758;SDS011;10038;42.662;23.278;2022-12-08T10:11:09;32.40;;;20.40;;
19758;SDS011;10038;42.662;23.278;2022-12-08T10:13:39;30.10;;;18.93;;
19758;SDS011;10038;42.662;23.278;2022-12-08T10:16:11;29.77;;;20.97;;
19758;SDS011;10038;42.662;23.278;2022-12-08T10:18:42;24.00;;;17.47;;
19758;SDS011;10038;42.662;23.278;2022-12-08T10:21:13;29.63;;;19.23;;
19758;SDS011;10038;42.662;23.278;2022-12-08T10:23:42;33.40;;;21.30;;
19758;SDS011;10038;42.662;23.278;2022-12-08T10:26:10;27.70;;;21.13;;
19758;SDS011;10038;42.662;23.278;2022-12-08T10:28:37;25.60;;;17.67;;
19758;SDS011;10038;42.662;23.278;2022-12-08T10:31:04;24.37;;;17.70;;
19758;SDS011;10038;42.662;23.278;2022-12-08T10:33:31;27.17;;;19.63;;
19758;SDS011;10038;42.662;23.278;2022-12-08T10:35:59;29.87;;;20.73;;
19758;SDS011;10038;42.662;23.278;2022-12-08T10:38:29;30.40;;;21.67;;
19758;SDS011;10038;42.662;23.278;2022-12-08T10:40:58;32.90;;;21.97;;
19758;SDS011;10038;42.662;23.278;2022-12-08T10:43:26;31.30;;;20.03;;
19758;SDS011;10038;42.662;23.278;2022-12-08T10:45:52;30.80;;;20.07;;
19758;SDS011;10038;42.662;23.278;2022-12-08T10:48:20;22.83;;;16.97;;
19758;SDS011;10038;42.662;23.278;2022-12-08T10:50:52;29.93;;;17.03;;
19758;SDS011;10038;42.662;23.278;2022-12-08T10:53:21;25.47;;;17.07;;
19758;SDS011;10038;42.662;23.278;2022-12-08T10:55:49;25.23;;;17.10;;
19758;SDS011;10038;42.662;23.278;2022-12-08T10:58:22;25.40;;;17.30;;
19758;SDS011;10038;42.662;23.278;2022-12-08T11:00:50;24.27;;;15.93;;
19758;SDS011;10038;42.662;23.278;2022-12-08T11:03:20;18.13;;;13.60;;
19758;SDS011;10038;42.662;23.278;2022-12-08T11:05:48;19.20;;;13.30;;
19758;SDS011;10038;42.662;23.278;2022-12-08T11:08:15;24.83;;;13.60;;
19758;SDS011;10038;42.662;23.278;2022-12-08T11:10:43;18.87;;;13.57;;
19758;SDS011;10038;42.662;23.278;2022-12-08T11:13:12;16.53;;;12.53;;
19758;SDS011;10038;42.662;23.278;2022-12-08T11:15:41;17.87;;;12.33;;
19758;SDS011;10038;42.662;23.278;2022-12-08T11:18:19;22.97;;;12.97;;
19758;SDS011;10038;42.662;23.278;2022-12-08T11:20:47;16.80;;;11.17;;
19758;SDS011;10038;42.662;23.278;2022-12-08T11:23:21;16.93;;;11.50;;
19758;SDS011;10038;42.662;23.278;2022-12-08T11:25:50;16.47;;;9.67;;
19758;SDS011;10038;42.662;23.278;2022-12-08T11:28:19;16.20;;;10.90;;
19758;SDS011;10038;42.662;23.278;2022-12-08T11:30:48;17.80;;;10.80;;
19758;SDS011;10038;42.662;23.278;2022-12-08T11:33:21;12.30;;;9.47;;
19758;SDS011;10038;42.662;23.278;2022-12-08T11:35:48;18.33;;;9.90;;
19758;SDS011;10038;42.662;23.278;2022-12-08T11:38:17;15.67;;;11.00;;
19758;SDS011;10038;42.662;23.278;2022-12-08T11:40:45;11.47;;;7.87;;
19758;SDS011;10038;42.662;23.278;2022-12-08T11:43:15;9.07;;;6.77;;
19758;SDS011;10038;42.662;23.278;2022-12-08T11:45:42;11.73;;;7.20;;
19758;SDS011;10038;42.662;23.278;2022-12-08T11:48:10;15.70;;;9.73;;
19758;SDS011;10038;42.662;23.278;2022-12-08T11:50:41;17.87;;;10.60;;
19758;SDS011;10038;42.662;23.278;2022-12-08T11:53:13;16.13;;;8.53;;
19758;SDS011;10038;42.662;23.278;2022-12-08T11:55:41;13.43;;;7.50;;
19758;SDS011;10038;42.662;23.278;2022-12-08T11:58:10;11.53;;;7.70;;
19758;SDS011;10038;42.662;23.278;2022-12-08T12:00:40;12.10;;;7.80;;
19758;SDS011;10038;42.662;23.278;2022-12-08T12:03:07;12.33;;;7.93;;
19758;SDS011;10038;42.662;23.278;2022-12-08T12:05:39;15.43;;;7.83;;
19758;SDS011;10038;42.662;23.278;2022-12-08T12:08:14;14.23;;;8.47;;
19758;SDS011;10038;42.662;23.278;2022-12-08T12:10:46;10.93;;;7.43;;
19758;SDS011;10038;42.662;23.278;2022-12-08T12:13:23;15.40;;;8.33;;
19758;SDS011;10038;42.662;23.278;2022-12-08T12:18:38;14.23;;;9.27;;
19758;SDS011;10038;42.662;23.278;2022-12-08T12:21:10;12.17;;;8.47;;
19758;SDS011;10038;42.662;23.278;2022-12-08T12:23:41;17.13;;;8.47;;
19758;SDS011;10038;42.662;23.278;2022-12-08T12:26:15;13.70;;;8.17;;
19758;SDS011;10038;42.662;23.278;2022-12-08T12:28:43;13.57;;;7.63;;
19758;SDS011;10038;42.662;23.278;2022-12-08T12:31:11;19.53;;;8.90;;
19758;SDS011;10038;42.662;23.278;2022-12-08T12:33:41;18.50;;;8.63;;
19758;SDS011;10038;42.662;23.278;2022-12-08T12:36:08;20.57;;;9.80;;
19758;SDS011;10038;42.662;23.278;2022-12-08T12:38:36;15.57;;;9.07;;
19758;SDS011;10038;42.662;23.278;2022-12-08T12:41:22;16.47;;;9.13;;
19758;SDS011;10038;42.662;23.278;2022-12-08T12:46:41;16.40;;;10.03;;
19758;SDS011;10038;42.662;23.278;2022-12-08T12:52:06;15.30;;;8.80;;
19758;SDS011;10038;42.662;23.278;2022-12-08T12:57:37;12.20;;;8.60;;
19758;SDS011;10038;42.662;23.278;2022-12-08T13:00:07;20.30;;;9.27;;
19758;SDS011;10038;42.662;23.278;2022-12-08T13:02:36;13.47;;;8.03;;
19758;SDS011;10038;42.662;23.278;2022-12-08T13:05:06;17.73;;;8.80;;
19758;SDS011;10038;42.662;23.278;2022-12-08T13:07:40;16.70;;;7.77;;
19758;SDS011;10038;42.662;23.278;2022-12-08T13:10:12;22.10;;;8.77;;
19758;SDS011;10038;42.662;23.278;2022-12-08T13:12:42;14.80;;;8.60;;
19758;SDS011;10038;42.662;23.278;2022-12-08T13:15:12;16.83;;;8.67;;
19758;SDS011;10038;42.662;23.278;2022-12-08T13:17:42;14.90;;;7.80;;
19758;SDS011;10038;42.662;23.278;2022-12-08T13:20:16;10.87;;;6.97;;
19758;SDS011;10038;42.662;23.278;2022-12-08T13:22:46;11.90;;;7.00;;
19758;SDS011;10038;42.662;23.278;2022-12-08T13:28:07;9.90;;;6.47;;
19758;SDS011;10038;42.662;23.278;2022-12-08T13:30:40;12.00;;;6.47;;
19758;SDS011;10038;42.662;23.278;2022-12-08T13:33:09;13.27;;;6.50;;
19758;SDS011;10038;42.662;23.278;2022-12-08T13:35:36;12.07;;;6.83;;
19758;SDS011;10038;42.662;23.278;2022-12-08T13:38:07;16.77;;;8.27;;
19758;SDS011;10038;42.662;23.278;2022-12-08T13:40:34;11.60;;;7.10;;
19758;SDS011;10038;42.662;23.278;2022-12-08T13:43:04;14.03;;;7.50;;
19758;SDS011;10038;42.662;23.278;2022-12-08T13:45:33;11.17;;;8.00;;
19758;SDS011;10038;42.662;23.278;2022-12-08T13:48:02;11.30;;;7.70;;
19758;SDS011;10038;42.662;23.278;2022-12-08T13:50:30;18.80;;;8.70;;
19758;SDS011;10038;42.662;23.278;2022-12-08T13:52:59;13.30;;;7.33;;
19758;SDS011;10038;42.662;23.278;2022-12-08T13:55:28;11.67;;;8.10;;
19758;SDS011;10038;42.662;23.278;2022-12-08T13:57:58;15.80;;;8.60;;
19758;SDS011;10038;42.662;23.278;2022-12-08T14:00:24;18.30;;;9.03;;
19758;SDS011;10038;42.662;23.278;2022-12-08T14:02:54;20.10;;;9.10;;
19758;SDS011;10038;42.662;23.278;2022-12-08T14:05:22;21.77;;;9.43;;
19758;SDS011;10038;42.662;23.278;2022-12-08T14:07:50;18.50;;;9.93;;
19758;SDS011;10038;42.662;23.278;2022-12-08T14:10:18;14.97;;;10.30;;
19758;SDS011;10038;42.662;23.278;2022-12-08T14:12:47;22.13;;;10.53;;
19758;SDS011;10038;42.662;23.278;2022-12-08T14:15:16;18.27;;;10.93;;
19758;SDS011;10038;42.662;23.278;2022-12-08T14:17:49;20.93;;;10.27;;
19758;SDS011;10038;42.662;23.278;2022-12-08T14:20:18;18.83;;;9.53;;
19758;SDS011;10038;42.662;23.278;2022-12-08T14:22:46;22.83;;;10.50;;
19758;SDS011;10038;42.662;23.278;2022-12-08T14:25:15;18.37;;;9.50;;
19758;SDS011;10038;42.662;23.278;2022-12-08T14:27:43;17.60;;;9.17;;
19758;SDS011;10038;42.662;23.278;2022-12-08T14:30:17;20.80;;;11.97;;
19758;SDS011;10038;42.662;23.278;2022-12-08T14:32:46;26.37;;;12.40;;
19758;SDS011;10038;42.662;23.278;2022-12-08T14:35:17;17.93;;;10.47;;
19758;SDS011;10038;42.662;23.278;2022-12-08T14:37:45;17.23;;;9.70;;
19758;SDS011;10038;42.662;23.278;2022-12-08T14:40:17;22.00;;;10.47;;